Ambrosia Lake, New Mexico
Current Conditions -  °F | °C
As of 3:15 AM on Saturday 20 Dec 2014 (Local Time) from KGNT Reporting Station
Scattered Clouds Scattered Clouds  
Wind Chill: 10°   Ceiling: Unl
Heat Index: 19°   Visibility: 10mi
Dew Point: 18°   Wind: 7mph
Humidity: 95%   Direction: 310°NW
Pressure: 30.21"   Gusts: NA
Location:  35.2644°N, 107.733°W
Report Text: KGNT 201015Z AUTO 31006KT 10SM SCT003 M07/M08 A3021 RMK AO2 T10711078
Loading
Personal Weather Stations






























Interactive Weather Map New forecast layout! Learn more

10-Day Weather Forecast

Advertisements
Track Severe Weather on mobile